createdAt,value
2022-10-18T07:29:35.112Z,13.81
2022-10-18T07:30:34.939Z,14.05
2022-10-18T07:31:34.927Z,14.26
2022-10-18T07:32:34.917Z,14.43
2022-10-18T07:33:34.920Z,14.63
2022-10-18T07:34:34.927Z,14.84
2022-10-18T07:35:34.879Z,15.07
2022-10-18T07:36:34.877Z,15.28
2022-10-18T07:37:35.229Z,15.46
2022-10-18T07:38:34.849Z,15.62
2022-10-18T07:39:34.835Z,15.70
2022-10-18T07:40:34.835Z,15.76
2022-10-18T07:41:34.818Z,15.75
2022-10-18T07:42:37.848Z,15.70
2022-10-18T07:43:34.806Z,15.65
2022-10-18T07:44:34.786Z,15.65
2022-10-18T07:45:34.859Z,15.77
2022-10-18T07:46:34.767Z,15.88
2022-10-18T07:47:35.364Z,16.00
2022-10-18T07:48:34.749Z,16.08
2022-10-18T07:49:34.862Z,16.05
2022-10-18T07:50:34.881Z,16.09
2022-10-18T07:51:34.719Z,16.17
2022-10-18T07:52:34.724Z,16.26
2022-10-18T07:53:34.710Z,16.32
2022-10-18T07:54:34.704Z,16.41
2022-10-18T07:55:34.681Z,16.49
2022-10-18T07:56:34.719Z,16.49
2022-10-18T07:57:37.649Z,16.51
2022-10-18T07:58:34.651Z,16.61
2022-10-18T07:59:34.627Z,16.74
2022-10-18T08:00:34.621Z,16.81
2022-10-18T08:01:34.675Z,16.93
2022-10-18T08:02:34.600Z,17.09
2022-10-18T08:03:34.598Z,17.20
2022-10-18T08:04:34.623Z,17.26
2022-10-18T08:05:34.589Z,17.26
2022-10-18T08:06:34.578Z,17.26
2022-10-18T08:07:34.722Z,17.30
2022-10-18T08:08:34.547Z,17.39
2022-10-18T08:09:34.538Z,17.41
2022-10-18T08:10:34.517Z,17.45
2022-10-18T08:11:34.526Z,17.52
2022-10-18T08:12:37.496Z,17.59
2022-10-18T08:13:34.521Z,17.67
2022-10-18T08:14:34.478Z,17.71
2022-10-18T08:15:34.469Z,17.82
2022-10-18T08:16:34.471Z,17.89
2022-10-18T08:17:34.825Z,18.00
2022-10-18T08:18:34.426Z,18.08
2022-10-18T08:19:34.438Z,18.20
2022-10-18T08:20:35.408Z,18.31
2022-10-18T08:21:34.448Z,18.43
2022-10-18T08:22:34.389Z,18.43
2022-10-18T08:23:34.389Z,18.55
2022-10-18T08:24:34.396Z,18.66
2022-10-18T08:26:34.362Z,18.90
2022-10-18T08:27:37.340Z,18.95
2022-10-18T08:28:34.403Z,18.92
2022-10-18T08:29:34.416Z,18.96
2022-10-18T08:30:34.319Z,18.96
2022-10-18T08:31:34.312Z,19.04
2022-10-18T08:32:34.709Z,19.15
2022-10-18T08:33:34.278Z,19.26
2022-10-18T08:34:34.329Z,19.30
2022-10-18T08:35:34.263Z,19.34
2022-10-18T08:36:34.300Z,19.40
2022-10-18T08:37:34.752Z,19.47
2022-10-18T08:38:34.233Z,19.52
2022-10-18T08:39:34.213Z,19.62
2022-10-18T08:40:34.263Z,19.73
2022-10-18T08:41:34.192Z,19.84
2022-10-18T08:42:37.173Z,19.94
2022-10-18T08:44:34.222Z,20.09
2022-10-18T08:45:42.676Z,20.02
2022-10-18T08:46:34.135Z,19.95
2022-10-18T08:47:34.558Z,19.96
2022-10-18T08:48:34.123Z,19.95
2022-10-18T08:49:46.852Z,20.06
2022-10-18T08:50:34.110Z,20.10
2022-10-18T08:51:34.089Z,20.06
2022-10-18T08:52:34.165Z,20.07
2022-10-18T08:53:36.252Z,20.06
2022-10-18T08:54:34.051Z,20.11
2022-10-18T08:55:34.060Z,20.16
2022-10-18T08:56:34.042Z,20.21
2022-10-18T08:57:37.044Z,20.28
2022-10-18T08:58:34.041Z,20.25
2022-10-18T08:59:33.997Z,20.24
2022-10-18T09:00:34.030Z,20.26
2022-10-18T09:01:34.022Z,20.34
2022-10-18T09:02:34.335Z,20.40
2022-10-18T09:03:34.025Z,20.50
2022-10-18T09:04:33.945Z,20.59
2022-10-18T09:05:33.957Z,20.72
2022-10-18T09:06:33.931Z,20.81
2022-10-18T09:07:33.917Z,20.87
2022-10-18T09:08:33.908Z,20.95
2022-10-18T09:09:33.913Z,20.96
2022-10-18T09:10:33.898Z,20.93
2022-10-18T09:11:33.882Z,20.97
2022-10-18T09:12:36.931Z,20.93
2022-10-18T09:13:33.874Z,20.82
2022-10-18T09:14:33.855Z,20.77
2022-10-18T09:15:33.863Z,20.70
2022-10-18T09:16:33.833Z,20.72
2022-10-18T09:17:33.853Z,20.75
2022-10-18T09:18:33.941Z,20.80
2022-10-18T09:19:33.806Z,20.82
2022-10-18T09:20:33.795Z,20.77
2022-10-18T09:21:33.779Z,20.84
2022-10-18T09:22:34.095Z,20.96
2022-10-18T09:23:33.772Z,21.06
2022-10-18T09:24:33.738Z,21.14
2022-10-18T09:25:33.748Z,21.20
2022-10-18T09:26:33.734Z,21.30
2022-10-18T09:27:36.715Z,21.37
2022-10-18T09:28:33.777Z,21.39
2022-10-18T09:29:33.703Z,21.42
2022-10-18T09:30:33.683Z,21.35
2022-10-18T09:31:33.671Z,21.29
2022-10-18T09:32:34.093Z,21.27
2022-10-18T09:33:33.651Z,21.24
2022-10-18T09:34:33.656Z,21.27
2022-10-18T09:35:33.633Z,21.25
2022-10-18T09:36:33.626Z,21.22
2022-10-18T09:37:33.604Z,21.21
2022-10-18T09:38:34.053Z,21.27
2022-10-18T09:39:33.598Z,21.21
2022-10-18T09:40:33.574Z,21.20
2022-10-18T09:41:33.568Z,21.20
2022-10-18T09:42:36.543Z,21.29
2022-10-18T09:43:33.572Z,21.39
2022-10-18T09:44:33.534Z,21.48
2022-10-18T09:45:33.529Z,21.48
2022-10-18T09:46:33.507Z,21.55
2022-10-18T09:47:33.501Z,21.62
2022-10-18T09:48:33.495Z,21.66
2022-10-18T09:49:33.518Z,21.72
2022-10-18T09:50:33.461Z,21.82
2022-10-18T09:51:33.449Z,21.83
2022-10-18T09:52:33.829Z,21.76
2022-10-18T09:53:33.439Z,21.76
2022-10-18T09:54:33.466Z,21.66
2022-10-18T09:55:33.407Z,21.55
2022-10-18T09:56:37.870Z,21.50
2022-10-18T09:57:36.383Z,21.55
2022-10-18T09:58:33.399Z,21.67
2022-10-18T09:59:33.373Z,21.82
2022-10-18T10:00:33.355Z,21.85
2022-10-18T10:01:33.347Z,21.95
2022-10-18T10:02:33.367Z,22.04
2022-10-18T10:03:33.329Z,22.13
2022-10-18T10:04:33.317Z,22.20
2022-10-18T10:05:33.341Z,22.04
2022-10-18T10:06:33.301Z,21.85
2022-10-18T10:07:34.846Z,21.75
2022-10-18T10:08:33.274Z,21.62
2022-10-18T10:09:33.263Z,21.69
2022-10-18T10:10:33.272Z,21.80
2022-10-18T10:11:33.241Z,21.88
2022-10-18T10:12:36.265Z,21.96
2022-10-18T10:13:33.233Z,22.06
2022-10-18T10:14:33.206Z,22.06
2022-10-18T10:15:37.088Z,22.07
2022-10-18T10:16:33.187Z,22.07
2022-10-18T10:17:33.471Z,22.14
2022-10-18T10:18:33.186Z,22.22
2022-10-18T10:19:33.158Z,22.22
2022-10-18T10:20:33.158Z,22.20
2022-10-18T10:21:33.134Z,22.26
2022-10-18T10:22:33.118Z,22.29
2022-10-18T10:23:33.132Z,22.35
2022-10-18T10:24:33.101Z,22.35
2022-10-18T10:25:33.095Z,22.23
2022-10-18T10:26:33.073Z,22.22
2022-10-18T10:27:44.385Z,22.17
2022-10-18T10:28:33.147Z,22.14
2022-10-18T10:29:44.170Z,22.15
2022-10-18T10:30:33.039Z,22.18
2022-10-18T10:31:33.028Z,22.18
2022-10-18T10:32:33.018Z,22.25
2022-10-18T10:33:33.002Z,22.14
2022-10-18T10:34:33.000Z,22.10
2022-10-18T10:35:52.524Z,22.11
2022-10-18T10:36:33.974Z,22.08
2022-10-18T10:37:33.356Z,22.08
2022-10-18T10:38:32.957Z,22.07
2022-10-18T10:39:33.012Z,22.11
2022-10-18T10:40:32.930Z,22.22
2022-10-18T10:42:35.910Z,22.32
2022-10-18T10:43:37.557Z,22.45
2022-10-18T10:44:32.913Z,22.48
2022-10-18T10:45:32.883Z,22.48
2022-10-18T10:46:32.868Z,22.44
2022-10-18T10:47:32.852Z,22.50
2022-10-18T10:48:33.504Z,22.55
2022-10-18T10:49:40.178Z,22.50
2022-10-18T10:51:32.846Z,22.47
2022-10-18T10:52:32.818Z,22.53
2022-10-18T10:53:32.800Z,22.66
2022-10-18T10:54:32.788Z,22.80
2022-10-18T10:55:35.237Z,22.91
2022-10-18T10:56:32.789Z,23.02
2022-10-18T10:57:35.746Z,23.17
2022-10-18T10:58:32.758Z,23.12
2022-10-18T10:59:32.807Z,23.08
2022-10-18T11:00:32.770Z,23.10
2022-10-18T11:01:32.708Z,23.18
2022-10-18T11:02:33.047Z,23.28
2022-10-18T11:03:32.740Z,23.32
2022-10-18T11:04:44.020Z,23.39
2022-10-18T11:05:32.677Z,23.43
2022-10-18T11:06:32.668Z,23.47
2022-10-18T11:07:32.642Z,23.37
2022-10-18T11:08:32.655Z,23.21
2022-10-18T11:09:32.618Z,23.06
2022-10-18T11:10:32.621Z,23.05
2022-10-18T11:11:32.621Z,23.08
2022-10-18T11:12:35.753Z,22.99
2022-10-18T11:13:32.596Z,22.93
2022-10-18T11:14:32.587Z,22.93
2022-10-18T11:15:32.564Z,22.99
2022-10-18T11:16:32.597Z,22.96
2022-10-18T11:17:39.563Z,22.94
2022-10-18T11:18:32.536Z,22.96
2022-10-18T11:19:32.533Z,23.03
2022-10-18T11:20:32.516Z,23.15
2022-10-18T11:21:40.618Z,23.15
2022-10-18T11:22:32.893Z,23.05
2022-10-18T11:23:32.488Z,23.06
2022-10-18T11:24:32.470Z,23.12
2022-10-18T11:25:32.461Z,23.10
2022-10-18T11:26:32.452Z,23.06
2022-10-18T11:27:35.473Z,23.08
2022-10-18T11:28:41.528Z,23.02
2022-10-18T11:29:32.423Z,23.00
2022-10-18T11:30:32.413Z,22.91
2022-10-18T11:31:32.452Z,22.85
2022-10-18T11:32:32.615Z,22.78
2022-10-18T11:34:07.171Z,22.91
2022-10-18T11:34:33.501Z,23.08
2022-10-18T11:35:32.355Z,23.15
2022-10-18T11:36:34.052Z,23.23
2022-10-18T11:37:39.532Z,23.28
2022-10-18T11:38:32.330Z,23.27
2022-10-18T11:39:32.326Z,23.24
2022-10-18T11:40:32.317Z,23.24
2022-10-18T11:41:32.342Z,23.27
2022-10-18T11:42:39.696Z,23.20
2022-10-18T11:43:50.540Z,23.08
2022-10-18T11:44:33.272Z,23.06
2022-10-18T11:45:32.265Z,23.12
2022-10-18T11:46:32.254Z,23.18
2022-10-18T11:47:32.426Z,23.28
2022-10-18T11:48:32.230Z,23.36
2022-10-18T11:49:32.221Z,23.48
2022-10-18T11:50:32.222Z,23.62
2022-10-18T11:51:34.357Z,23.74
2022-10-18T11:52:33.223Z,23.73
2022-10-18T11:53:32.339Z,23.74
2022-10-18T11:54:32.234Z,23.77
2022-10-18T11:55:33.184Z,23.78
2022-10-18T11:56:32.155Z,23.84
2022-10-18T11:57:35.576Z,23.91
2022-10-18T11:58:32.138Z,23.95
2022-10-18T11:59:32.191Z,23.96
2022-10-18T12:00:32.110Z,24.01
2022-10-18T12:01:32.098Z,23.98
2022-10-18T12:02:32.533Z,23.99
2022-10-18T12:03:32.081Z,23.96
2022-10-18T12:04:32.098Z,23.73
2022-10-18T12:05:33.059Z,23.65
2022-10-18T12:06:32.061Z,23.56
2022-10-18T12:07:32.567Z,23.56
2022-10-18T12:08:32.021Z,23.37
2022-10-18T12:09:32.020Z,23.25
2022-10-18T12:10:44.262Z,23.20
2022-10-18T12:11:33.057Z,23.24
2022-10-18T12:12:35.241Z,23.28
2022-10-18T12:13:31.991Z,23.31
2022-10-18T12:14:31.973Z,23.40
2022-10-18T12:15:31.945Z,23.51
2022-10-18T12:16:50.429Z,23.68
2022-10-18T12:17:43.147Z,23.78
2022-10-18T12:18:32.928Z,23.86
2022-10-18T12:19:31.918Z,24.01
2022-10-18T12:20:31.918Z,24.03
2022-10-18T12:21:31.944Z,24.06
2022-10-18T12:22:32.182Z,24.03
2022-10-18T12:23:31.876Z,23.95
2022-10-18T12:24:31.868Z,23.81
2022-10-18T12:25:31.910Z,23.76
2022-10-18T12:26:31.867Z,23.74
2022-10-18T12:27:34.961Z,23.77
2022-10-18T12:28:31.864Z,23.84
2022-10-18T12:29:31.804Z,23.81
2022-10-18T12:30:31.821Z,23.83
2022-10-18T12:31:31.790Z,23.73
2022-10-18T12:32:32.128Z,23.66
2022-10-18T12:33:31.787Z,23.62
2022-10-18T12:34:31.751Z,23.59
2022-10-18T12:35:31.803Z,23.56
2022-10-18T12:36:31.741Z,23.41
2022-10-18T12:37:32.073Z,23.32
2022-10-18T12:38:31.714Z,23.23
2022-10-18T12:39:43.323Z,23.15
2022-10-18T12:40:32.875Z,23.09
2022-10-18T12:41:31.687Z,23.05
2022-10-18T12:42:34.664Z,23.10
2022-10-18T12:43:31.781Z,23.10
2022-10-18T12:44:31.676Z,23.03
2022-10-18T12:45:31.644Z,23.10
2022-10-18T12:46:31.658Z,23.23
2022-10-18T12:47:31.918Z,23.31
2022-10-18T12:48:31.617Z,23.31
2022-10-18T12:49:31.702Z,23.44
2022-10-18T12:50:31.597Z,23.54
2022-10-18T12:51:31.640Z,23.63
2022-10-18T12:52:31.568Z,23.73
2022-10-18T12:53:31.560Z,23.86
2022-10-18T12:54:31.553Z,23.96
2022-10-18T12:55:31.604Z,23.99
2022-10-18T12:56:31.537Z,23.88
2022-10-18T12:57:34.693Z,23.91
2022-10-18T12:58:31.536Z,23.93
2022-10-18T12:59:31.500Z,23.96
2022-10-18T13:00:31.563Z,24.03
2022-10-18T13:01:31.554Z,24.05
2022-10-18T13:02:31.847Z,24.01
2022-10-18T13:03:31.465Z,24.06
2022-10-18T13:04:31.464Z,24.10
2022-10-18T13:05:41.997Z,24.14
2022-10-18T13:06:32.414Z,24.13
2022-10-18T13:07:32.000Z,24.21
2022-10-18T13:08:31.415Z,24.14
2022-10-18T13:09:31.407Z,23.95
2022-10-18T13:10:31.390Z,23.84
2022-10-18T13:11:31.366Z,23.77
2022-10-18T13:12:34.480Z,23.73
2022-10-18T13:13:39.568Z,23.73
2022-10-18T13:14:31.338Z,23.78
2022-10-18T13:15:34.171Z,23.84
2022-10-18T13:16:31.318Z,23.92
2022-10-18T13:17:31.618Z,23.83
2022-10-18T13:18:31.347Z,23.74
2022-10-18T13:19:31.290Z,23.62
2022-10-18T13:20:31.291Z,23.59
2022-10-18T13:21:31.281Z,23.59
2022-10-18T13:22:31.261Z,23.68
2022-10-18T13:23:32.722Z,23.74
2022-10-18T13:24:31.232Z,23.87
2022-10-18T13:25:31.283Z,24.01
2022-10-18T13:26:31.215Z,24.14
2022-10-18T13:27:36.614Z,24.26
2022-10-18T13:28:31.273Z,24.30
2022-10-18T13:29:31.196Z,24.28
2022-10-18T13:30:31.282Z,24.18
2022-10-18T13:31:31.163Z,24.13
2022-10-18T13:32:31.397Z,24.05
2022-10-18T13:33:31.144Z,24.03
2022-10-18T13:34:31.134Z,24.01
2022-10-18T13:35:31.127Z,23.96
2022-10-18T13:36:31.117Z,23.92
2022-10-18T13:37:31.214Z,23.86
2022-10-18T13:38:31.088Z,23.83
2022-10-18T13:39:31.087Z,23.80
2022-10-18T13:40:31.076Z,23.80
2022-10-18T13:41:34.334Z,23.80
2022-10-18T13:42:34.413Z,23.81
2022-10-18T13:43:31.068Z,23.84
2022-10-18T13:44:31.031Z,23.63
2022-10-18T13:45:31.033Z,23.58
2022-10-18T13:46:31.011Z,23.51
2022-10-18T13:47:31.002Z,23.55
2022-10-18T13:48:31.023Z,23.54
2022-10-18T13:49:30.972Z,23.55
2022-10-18T13:50:30.976Z,23.54
2022-10-18T13:51:30.952Z,23.59
2022-10-18T13:52:31.209Z,23.56
2022-10-18T13:53:30.940Z,23.51
2022-10-18T13:54:30.993Z,23.48
2022-10-18T13:55:30.918Z,23.54
2022-10-18T13:56:30.912Z,23.54
2022-10-18T13:57:33.894Z,23.62
2022-10-18T13:58:30.903Z,23.59
2022-10-18T13:59:30.896Z,23.55
2022-10-18T14:00:30.865Z,23.51
2022-10-18T14:01:30.875Z,23.50
2022-10-18T14:02:50.516Z,23.47
2022-10-18T14:03:55.758Z,23.43
2022-10-18T14:04:31.828Z,23.41
2022-10-18T14:05:30.828Z,23.36
2022-10-18T14:06:30.808Z,23.24
2022-10-18T14:07:30.798Z,23.20
2022-10-18T14:08:30.842Z,23.15
2022-10-18T14:09:43.655Z,23.09
2022-10-18T14:10:43.847Z,23.03
2022-10-18T14:11:31.750Z,22.98
2022-10-18T14:12:34.010Z,23.05
2022-10-18T14:13:30.773Z,23.12
2022-10-18T14:14:30.713Z,23.13
2022-10-18T14:15:30.722Z,23.03
2022-10-18T14:16:30.706Z,22.96
2022-10-18T14:17:30.752Z,22.90
2022-10-18T14:18:31.826Z,22.80
2022-10-18T14:19:30.694Z,22.81
2022-10-18T14:20:30.661Z,22.83
2022-10-18T14:21:31.685Z,22.83
2022-10-18T14:22:30.949Z,22.76
2022-10-18T14:23:30.655Z,22.73
2022-10-18T14:24:30.618Z,22.63
2022-10-18T14:25:30.607Z,22.55
2022-10-18T14:26:30.623Z,22.44
2022-10-18T14:27:33.829Z,22.38
2022-10-18T14:28:48.031Z,22.29
2022-10-18T14:29:31.619Z,22.22
2022-10-18T14:30:30.560Z,22.13
2022-10-18T14:31:30.540Z,21.98
2022-10-18T14:32:30.533Z,21.82
2022-10-18T14:33:30.529Z,21.75
2022-10-18T14:34:30.540Z,21.67
2022-10-18T14:35:32.982Z,21.58
2022-10-18T14:36:30.495Z,21.52
2022-10-18T14:37:30.878Z,21.52
2022-10-18T14:38:30.471Z,21.46
2022-10-18T14:39:30.482Z,21.48
2022-10-18T14:40:30.444Z,21.52
2022-10-18T14:41:30.442Z,21.48
2022-10-18T14:42:33.423Z,21.45
2022-10-18T14:43:30.540Z,21.45
2022-10-18T14:44:30.425Z,21.57
2022-10-18T14:45:30.416Z,21.66
2022-10-18T14:46:31.778Z,21.79
2022-10-18T14:47:30.781Z,21.95
2022-10-18T14:48:30.375Z,22.08
2022-10-18T14:50:30.905Z,22.22
2022-10-18T14:51:30.347Z,22.29
2022-10-18T14:52:35.109Z,22.30
2022-10-18T14:53:30.310Z,22.33
2022-10-18T14:54:31.947Z,22.38
2022-10-18T14:55:30.326Z,22.41
2022-10-18T14:56:30.286Z,22.41
2022-10-18T14:57:33.726Z,22.38
2022-10-18T14:58:30.278Z,22.39
2022-10-18T14:59:30.241Z,22.32
2022-10-18T15:00:30.286Z,22.30
2022-10-18T15:01:30.300Z,22.20
2022-10-18T15:02:30.497Z,22.13
2022-10-18T15:03:30.213Z,22.06
2022-10-18T15:04:30.199Z,21.99
2022-10-18T15:05:30.223Z,21.95
2022-10-18T15:06:30.205Z,21.95
2022-10-18T15:07:30.411Z,21.93
2022-10-18T15:08:30.175Z,21.88
2022-10-18T15:09:30.147Z,21.82
2022-10-18T15:10:30.187Z,21.79
2022-10-18T15:11:30.134Z,21.79
2022-10-18T15:12:40.879Z,21.73
2022-10-18T15:13:31.114Z,21.79
2022-10-18T15:14:30.123Z,21.83
2022-10-18T15:15:30.078Z,21.82
2022-10-18T15:16:30.081Z,21.79
2022-10-18T15:17:30.067Z,21.73
2022-10-18T15:19:30.067Z,21.64
2022-10-18T15:20:30.028Z,21.62
2022-10-18T15:21:30.048Z,21.64
2022-10-18T15:22:32.399Z,21.61
2022-10-18T15:23:30.010Z,21.57
2022-10-18T15:24:29.988Z,21.55
2022-10-18T15:25:31.969Z,21.48
2022-10-18T15:26:30.182Z,21.43
2022-10-18T15:27:33.248Z,21.33
2022-10-18T15:29:29.933Z,21.17
2022-10-18T15:30:29.932Z,21.11
2022-10-18T15:31:29.927Z,21.03
2022-10-18T15:32:30.141Z,20.95
2022-10-18T15:33:29.909Z,20.87
2022-10-18T15:34:29.907Z,20.80
2022-10-18T15:35:29.898Z,20.66
2022-10-18T15:36:29.904Z,20.59
2022-10-18T15:37:30.103Z,20.52
2022-10-18T15:38:29.849Z,20.50
2022-10-18T15:39:29.828Z,20.44
2022-10-18T15:40:29.835Z,20.40
2022-10-18T15:41:29.816Z,20.37
2022-10-18T15:42:32.818Z,20.31
2022-10-18T15:43:29.809Z,20.21
2022-10-18T15:44:29.785Z,20.14
2022-10-18T15:45:29.778Z,20.04
2022-10-18T15:46:29.766Z,19.91
2022-10-18T15:47:29.892Z,19.81
2022-10-18T15:48:29.741Z,19.70
2022-10-18T15:49:29.731Z,19.62
2022-10-18T15:50:29.718Z,19.54
2022-10-18T15:51:29.701Z,19.49
2022-10-18T15:52:33.846Z,19.45
2022-10-18T15:53:29.698Z,19.39
2022-10-18T15:54:29.683Z,19.37
2022-10-18T15:55:29.708Z,19.36
2022-10-18T15:56:29.669Z,19.34
2022-10-18T15:57:32.971Z,19.29
2022-10-18T15:58:29.696Z,19.26
2022-10-18T15:59:29.624Z,19.19
2022-10-18T16:00:29.616Z,19.15
2022-10-18T16:01:29.674Z,19.11
2022-10-18T16:02:29.606Z,19.08
2022-10-18T16:03:29.592Z,19.02
2022-10-18T16:04:29.594Z,18.96
2022-10-18T16:05:29.574Z,18.89
2022-10-18T16:06:29.568Z,18.75
2022-10-18T16:07:29.767Z,18.58
2022-10-18T16:08:29.538Z,18.44
2022-10-18T16:09:29.529Z,18.29
2022-10-18T16:10:29.525Z,18.16
2022-10-18T16:11:29.514Z,18.08
2022-10-18T16:12:32.490Z,18.07
2022-10-18T16:13:29.500Z,18.05
2022-10-18T16:14:29.501Z,18.03
2022-10-18T16:15:29.460Z,17.95
2022-10-18T16:16:29.460Z,17.92
2022-10-18T16:17:29.584Z,17.87
2022-10-18T16:18:29.433Z,17.85
2022-10-18T16:19:29.443Z,17.82
2022-10-18T16:20:29.412Z,17.79
2022-10-18T16:21:29.431Z,17.78
2022-10-18T16:22:31.146Z,17.74
2022-10-18T16:23:29.379Z,17.76
2022-10-18T16:24:29.374Z,17.72
2022-10-18T16:25:29.363Z,17.71
2022-10-18T16:26:29.408Z,17.70
2022-10-18T16:27:32.337Z,17.68
2022-10-18T16:28:29.396Z,17.65
2022-10-18T16:29:29.326Z,17.64
2022-10-18T16:30:29.305Z,17.63
2022-10-18T16:31:29.323Z,17.63
2022-10-18T16:32:29.371Z,17.60
2022-10-18T16:33:29.277Z,17.56
2022-10-18T16:34:29.367Z,17.52
2022-10-18T16:35:29.258Z,17.48
2022-10-18T16:36:29.247Z,17.44
2022-10-18T16:37:29.237Z,17.39
2022-10-18T16:38:32.625Z,17.36
2022-10-18T16:39:29.247Z,17.33
2022-10-18T16:40:29.208Z,17.30
2022-10-18T16:41:29.195Z,17.27
2022-10-18T16:42:32.447Z,17.23
2022-10-18T16:43:29.223Z,17.16
2022-10-18T16:44:29.201Z,17.08
2022-10-18T16:45:29.150Z,16.99
2022-10-18T16:46:29.142Z,16.90
2022-10-18T16:47:29.123Z,16.84
2022-10-18T16:48:29.111Z,16.79
2022-10-18T16:49:29.109Z,16.75
2022-10-18T16:50:30.866Z,16.71
2022-10-18T16:51:29.114Z,16.69
2022-10-18T16:52:29.082Z,16.66
2022-10-18T16:53:29.062Z,16.64
2022-10-18T16:54:29.063Z,16.61
2022-10-18T16:55:29.044Z,16.57
2022-10-18T16:56:29.058Z,16.56
2022-10-18T16:57:32.033Z,16.54
2022-10-18T16:58:29.037Z,16.51
2022-10-18T16:59:29.011Z,16.51
2022-10-18T17:00:28.986Z,16.50
2022-10-18T17:01:29.040Z,16.47
2022-10-18T17:02:28.977Z,16.46
2022-10-18T17:03:28.967Z,16.46
2022-10-18T17:04:28.977Z,16.46
2022-10-18T17:05:28.995Z,16.42
2022-10-18T17:06:29.029Z,16.41
2022-10-18T17:07:28.987Z,16.42
2022-10-18T17:08:28.969Z,16.41
2022-10-18T17:09:28.961Z,16.38
2022-10-18T17:10:28.949Z,16.36
2022-10-18T17:11:28.931Z,16.31
2022-10-18T17:12:32.235Z,16.28
2022-10-18T17:13:28.923Z,16.23
2022-10-18T17:14:28.903Z,16.21
2022-10-18T17:15:32.811Z,16.17
2022-10-18T17:17:28.883Z,16.12
2022-10-18T17:18:28.871Z,16.10
2022-10-18T17:19:28.953Z,16.09
2022-10-18T17:20:28.836Z,16.08
2022-10-18T17:21:28.844Z,16.08
2022-10-18T17:22:28.820Z,16.02
2022-10-18T17:23:28.815Z,16.01
2022-10-18T17:24:28.795Z,16.00
2022-10-18T17:26:29.920Z,15.94
2022-10-18T17:27:32.040Z,15.90
2022-10-18T17:28:28.797Z,15.86
2022-10-18T17:29:28.757Z,15.83
2022-10-18T17:30:28.747Z,15.82
2022-10-18T17:31:28.727Z,15.80
2022-10-18T17:32:28.715Z,15.79
2022-10-18T17:33:28.707Z,15.79
2022-10-18T17:34:28.815Z,15.77
2022-10-18T17:35:28.693Z,15.75
2022-10-18T17:36:28.688Z,15.73
2022-10-18T17:37:28.671Z,15.73
2022-10-18T17:38:28.667Z,15.72
2022-10-18T17:39:28.644Z,15.68
2022-10-18T17:40:28.629Z,15.68
2022-10-18T17:41:28.637Z,15.62
2022-10-18T17:42:31.613Z,15.59
2022-10-18T17:43:28.677Z,15.55
2022-10-18T17:44:28.793Z,15.51
2022-10-18T17:45:28.583Z,15.44
2022-10-18T17:46:28.564Z,15.43
2022-10-18T17:47:28.551Z,15.42
2022-10-18T17:48:28.534Z,15.39
2022-10-18T17:49:28.572Z,15.36
2022-10-18T17:50:28.525Z,15.36
2022-10-18T17:51:28.521Z,15.33
2022-10-18T17:52:28.495Z,15.28
2022-10-18T17:53:28.505Z,15.29
2022-10-18T17:54:28.605Z,15.27
2022-10-18T17:55:28.475Z,15.25
2022-10-18T17:56:28.489Z,15.21
2022-10-18T17:57:31.675Z,15.17
2022-10-18T17:58:28.454Z,15.14
2022-10-18T17:59:28.444Z,15.07
2022-10-18T18:00:28.413Z,15.06
2022-10-18T18:01:28.459Z,15.02
2022-10-18T18:02:28.400Z,15.02
2022-10-18T18:03:28.457Z,14.99
2022-10-18T18:04:28.366Z,15.00
2022-10-18T18:05:28.364Z,14.97
2022-10-18T18:06:28.349Z,14.97
2022-10-18T18:07:28.341Z,14.92
2022-10-18T18:08:28.329Z,14.92
2022-10-18T18:09:28.319Z,14.88
2022-10-18T18:10:28.310Z,14.85
2022-10-18T18:11:28.320Z,14.81
2022-10-18T18:12:31.628Z,14.73
2022-10-18T18:13:28.292Z,14.70
2022-10-18T18:14:28.283Z,14.69
2022-10-18T18:15:28.400Z,14.66
2022-10-18T18:16:28.274Z,14.66
2022-10-18T18:17:33.978Z,14.68
2022-10-18T18:18:29.263Z,14.65
2022-10-18T18:19:28.204Z,14.62
2022-10-18T18:20:28.200Z,14.63
2022-10-18T18:21:28.193Z,14.63
2022-10-18T18:22:28.183Z,14.62
2022-10-18T18:23:28.178Z,14.60
2022-10-18T18:24:28.154Z,14.60
2022-10-18T18:25:28.151Z,14.58
2022-10-18T18:26:28.135Z,14.58
2022-10-18T18:27:31.118Z,14.55
2022-10-18T18:28:28.211Z,14.53
2022-10-18T18:29:28.097Z,14.53
2022-10-18T18:30:28.085Z,14.50
2022-10-18T18:31:30.774Z,14.51
2022-10-18T18:32:28.068Z,14.48
2022-10-18T18:33:28.058Z,14.47
2022-10-18T18:34:28.048Z,14.44
2022-10-18T18:35:28.047Z,14.43
2022-10-18T18:36:28.027Z,14.41
2022-10-18T18:37:28.017Z,14.37
2022-10-18T18:38:28.040Z,14.36
2022-10-18T18:39:28.004Z,14.36
2022-10-18T18:40:27.991Z,14.33
2022-10-18T18:41:27.980Z,14.33
2022-10-18T18:42:31.348Z,14.32
2022-10-18T18:43:28.461Z,14.30
2022-10-18T18:44:28.273Z,14.30
2022-10-18T18:45:27.930Z,14.28
2022-10-18T18:46:27.913Z,14.26
2022-10-18T18:47:27.918Z,14.25
2022-10-18T18:48:27.919Z,14.25
2022-10-18T18:49:27.871Z,14.23
2022-10-18T18:50:27.872Z,14.20
2022-10-18T18:51:27.862Z,14.20
2022-10-18T18:52:27.851Z,14.17
2022-10-18T18:53:29.562Z,14.17
2022-10-18T18:54:27.826Z,14.15
2022-10-18T18:55:27.834Z,14.14
2022-10-18T18:56:27.804Z,14.12
2022-10-18T18:57:31.035Z,14.08
2022-10-18T18:58:27.795Z,14.11
2022-10-18T18:59:27.780Z,14.07
2022-10-18T19:00:27.854Z,14.07
2022-10-18T19:01:27.782Z,14.04
2022-10-18T19:02:27.787Z,14.03
2022-10-18T19:03:27.736Z,14.03
2022-10-18T19:04:27.732Z,14.03
2022-10-18T19:05:27.730Z,14.00
2022-10-18T19:06:27.709Z,14.00
2022-10-18T19:07:27.689Z,14.03
2022-10-18T19:08:27.665Z,14.00
2022-10-18T19:09:27.670Z,14.00
2022-10-18T19:10:27.683Z,14.00
2022-10-18T19:11:27.636Z,14.00
2022-10-18T19:12:31.791Z,13.97
2022-10-18T19:13:27.643Z,13.95
2022-10-18T19:14:27.709Z,13.93
2022-10-18T19:15:27.650Z,13.92
2022-10-18T19:16:27.599Z,13.92
2022-10-18T19:17:27.591Z,13.89
2022-10-18T19:18:27.582Z,13.89
2022-10-18T19:19:27.571Z,13.87
2022-10-18T19:20:27.562Z,13.87
2022-10-18T19:21:27.539Z,13.86
2022-10-18T19:22:27.530Z,13.89
2022-10-18T19:23:27.563Z,13.87
2022-10-18T19:24:27.529Z,13.86
2022-10-18T19:25:27.502Z,13.87
2022-10-18T19:26:27.498Z,13.85
2022-10-18T19:27:30.679Z,13.85
2022-10-18T19:28:27.573Z,13.77
2022-10-18T19:29:27.460Z,13.75
2022-10-18T19:30:27.478Z,13.72
2022-10-18T19:31:27.447Z,13.72
2022-10-18T19:33:41.242Z,13.68
2022-10-18T19:34:28.420Z,13.65
2022-10-18T19:35:27.395Z,13.67
2022-10-18T19:36:27.403Z,13.65
2022-10-18T19:37:27.428Z,13.63
2022-10-18T19:38:27.386Z,13.57
2022-10-18T19:39:27.366Z,13.56
2022-10-18T19:40:27.348Z,13.53
2022-10-18T19:41:27.352Z,13.52
2022-10-18T19:42:31.432Z,13.53
2022-10-18T19:43:27.349Z,13.52
2022-10-18T19:44:27.312Z,13.50
2022-10-18T19:45:27.334Z,13.52
2022-10-18T19:46:27.305Z,13.50
2022-10-18T19:47:27.269Z,13.50
2022-10-18T19:48:27.264Z,13.49
2022-10-18T19:49:27.253Z,13.49
2022-10-18T19:50:27.359Z,13.49
2022-10-18T19:51:28.491Z,13.49
2022-10-18T19:52:27.239Z,13.49
2022-10-18T19:53:27.288Z,13.46
2022-10-18T19:54:27.203Z,13.46
2022-10-18T19:55:27.289Z,13.42
2022-10-18T19:56:27.185Z,13.41
2022-10-18T19:57:30.179Z,13.39
2022-10-18T19:58:27.189Z,13.39
2022-10-18T19:59:27.248Z,13.37
2022-10-18T20:00:27.398Z,13.37
2022-10-18T20:01:27.192Z,13.35
2022-10-18T20:02:27.255Z,13.31
2022-10-18T20:03:27.127Z,13.28
2022-10-18T20:04:27.120Z,13.27
2022-10-18T20:05:27.114Z,13.27
2022-10-18T20:06:27.131Z,13.25
2022-10-18T20:07:27.159Z,13.27
2022-10-18T20:08:27.070Z,13.23
2022-10-18T20:09:27.057Z,13.23
2022-10-18T20:10:27.052Z,13.20
2022-10-18T20:11:27.026Z,13.22
2022-10-18T20:12:30.384Z,13.22
2022-10-18T20:13:27.027Z,13.19
2022-10-18T20:14:27.020Z,13.19
2022-10-18T20:15:27.010Z,13.16
2022-10-18T20:16:28.518Z,13.16
2022-10-18T20:17:26.980Z,13.12
2022-10-18T20:18:26.973Z,13.12
2022-10-18T20:19:26.960Z,13.09
2022-10-18T20:20:26.973Z,13.09
2022-10-18T20:21:26.940Z,13.08
2022-10-18T20:22:26.962Z,13.08
2022-10-18T20:23:26.924Z,13.08
2022-10-18T20:24:26.914Z,13.08
2022-10-18T20:25:26.903Z,13.04
2022-10-18T20:26:26.890Z,13.03
2022-10-18T20:27:30.388Z,13.01
2022-10-18T20:28:26.935Z,13.00
2022-10-18T20:29:26.916Z,13.01
2022-10-18T20:30:26.859Z,13.00
2022-10-18T20:31:26.848Z,12.98